createdAt,value
2017-05-08T00:01:06.052Z,9.54
2017-05-08T00:03:33.415Z,9.52
2017-05-08T00:06:00.660Z,9.04
2017-05-08T00:08:27.939Z,10.46
2017-05-08T00:10:55.192Z,10.62
2017-05-08T00:13:22.480Z,10.48
2017-05-08T00:15:50.057Z,9.78
2017-05-08T00:18:17.341Z,13.06
2017-05-08T00:20:44.761Z,11.56
2017-05-08T00:23:12.757Z,8.84
2017-05-08T00:25:40.048Z,10.12
2017-05-08T00:28:07.379Z,11.40
2017-05-08T00:30:34.739Z,11.72
2017-05-08T00:33:02.140Z,11.46
2017-05-08T00:35:29.396Z,10.66
2017-05-08T00:37:56.683Z,10.84
2017-05-08T00:40:24.753Z,11.60
2017-05-08T00:42:52.748Z,10.86
2017-05-08T00:45:20.023Z,10.88
2017-05-08T00:47:47.305Z,10.64
2017-05-08T00:50:14.695Z,11.16
2017-05-08T00:52:42.141Z,9.20
2017-05-08T00:55:09.435Z,10.50
2017-05-08T00:57:37.451Z,9.12
2017-05-08T01:00:04.804Z,8.84
2017-05-08T01:02:32.120Z,9.10
2017-05-08T01:05:00.179Z,8.60
2017-05-08T01:07:27.492Z,9.20
2017-05-08T01:09:54.758Z,9.84
2017-05-08T01:12:22.148Z,10.62
2017-05-08T01:14:49.493Z,9.88
2017-05-08T01:17:16.960Z,9.70
2017-05-08T01:19:44.391Z,9.52
2017-05-08T01:22:11.677Z,9.06
2017-05-08T01:24:38.945Z,9.48
2017-05-08T01:27:06.299Z,9.62
2017-05-08T01:29:33.531Z,10.52
2017-05-08T01:32:00.776Z,8.66
2017-05-08T01:34:28.017Z,9.10
2017-05-08T01:36:56.021Z,9.52
2017-05-08T01:39:23.289Z,9.98
2017-05-08T01:41:50.644Z,10.98
2017-05-08T01:44:17.952Z,9.46
2017-05-08T01:46:45.223Z,10.74
2017-05-08T01:49:13.287Z,10.86
2017-05-08T01:51:40.560Z,11.12
2017-05-08T01:54:08.589Z,14.10
2017-05-08T01:56:35.841Z,14.22
2017-05-08T01:59:03.108Z,15.72
2017-05-08T02:01:30.360Z,17.62
2017-05-08T02:03:57.634Z,16.42
2017-05-08T02:06:24.976Z,18.60
2017-05-08T02:08:52.301Z,18.24
2017-05-08T02:11:19.606Z,18.52
2017-05-08T02:13:46.872Z,19.10
2017-05-08T02:16:14.141Z,19.14
2017-05-08T02:18:41.424Z,17.72
2017-05-08T02:21:08.705Z,19.02
2017-05-08T02:23:36.021Z,17.14
2017-05-08T02:26:04.057Z,17.22
2017-05-08T02:28:31.357Z,14.76
2017-05-08T02:30:59.432Z,13.38
2017-05-08T02:33:26.731Z,9.72
2017-05-08T02:35:54.175Z,6.04
2017-05-08T02:38:21.467Z,4.42
2017-05-08T02:40:48.956Z,6.72
2017-05-08T02:43:16.333Z,6.46
2017-05-08T02:45:44.554Z,6.64
2017-05-08T02:48:11.932Z,6.74
2017-05-08T02:50:39.292Z,4.64
2017-05-08T02:53:06.627Z,5.50
2017-05-08T02:55:33.961Z,5.18
2017-05-08T02:58:02.024Z,6.18
2017-05-08T03:00:29.308Z,8.24
2017-05-08T03:03:04.285Z,8.96
2017-05-08T03:05:31.645Z,6.16
2017-05-08T03:07:58.940Z,6.92
2017-05-08T03:10:26.932Z,8.72
2017-05-08T03:12:54.920Z,7.72
2017-05-08T03:15:22.228Z,7.40
2017-05-08T03:17:49.554Z,8.46
2017-05-08T03:20:16.999Z,4.62
2017-05-08T03:22:44.271Z,7.32
2017-05-08T03:25:11.519Z,7.82
2017-05-08T03:27:38.825Z,9.52
2017-05-08T03:30:06.364Z,11.26
2017-05-08T03:32:33.888Z,7.42
2017-05-08T03:35:01.887Z,12.62
2017-05-08T03:37:29.176Z,11.20
2017-05-08T03:39:56.629Z,9.84
2017-05-08T03:42:23.887Z,11.24
2017-05-08T03:44:51.156Z,12.72
2017-05-08T03:47:18.459Z,14.90
2017-05-08T03:49:46.453Z,11.34
2017-05-08T03:52:13.738Z,11.98
2017-05-08T03:54:40.972Z,12.84
2017-05-08T03:57:08.238Z,9.30
2017-05-08T03:59:35.584Z,9.44
2017-05-08T04:02:02.884Z,12.32
2017-05-08T04:04:30.357Z,11.48
2017-05-08T04:06:57.632Z,10.06
2017-05-08T04:09:25.620Z,10.90
2017-05-08T04:11:53.605Z,6.60
2017-05-08T04:14:20.940Z,9.78
2017-05-08T04:16:49.591Z,12.10
2017-05-08T04:19:16.869Z,11.66
2017-05-08T04:21:44.148Z,11.92
2017-05-08T04:24:12.281Z,10.50
2017-05-08T04:26:39.548Z,10.70
2017-05-08T04:29:06.801Z,9.60
2017-05-08T04:31:34.076Z,12.12
2017-05-08T04:34:01.333Z,10.06
2017-05-08T04:36:28.655Z,11.98
2017-05-08T04:38:55.983Z,10.70
2017-05-08T04:41:24.040Z,11.08
2017-05-08T04:43:51.330Z,11.88
2017-05-08T04:46:18.643Z,10.50
2017-05-08T04:48:46.020Z,9.24
2017-05-08T04:51:13.357Z,11.30
2017-05-08T04:53:40.602Z,10.48
2017-05-08T04:56:07.924Z,10.34
2017-05-08T04:58:35.225Z,8.08
2017-05-08T05:01:02.538Z,10.62
2017-05-08T05:03:30.607Z,9.54
2017-05-08T05:05:58.600Z,8.64
2017-05-08T05:08:25.893Z,10.02
2017-05-08T05:10:53.137Z,8.84
2017-05-08T05:13:20.392Z,8.50
2017-05-08T05:15:47.727Z,8.16
2017-05-08T05:18:15.018Z,9.36
2017-05-08T05:20:42.315Z,9.10
2017-05-08T05:23:09.580Z,5.66
2017-05-08T05:25:36.896Z,8.58
2017-05-08T05:28:04.211Z,8.00
2017-05-08T05:30:39.199Z,8.02
2017-05-08T05:33:06.495Z,10.64
2017-05-08T05:35:34.612Z,10.12
2017-05-08T05:38:01.920Z,8.84
2017-05-08T05:40:29.215Z,9.42
2017-05-08T05:42:56.566Z,8.34
2017-05-08T05:45:30.864Z,9.48
2017-05-08T05:47:58.117Z,8.30
2017-05-08T05:50:25.520Z,6.08
2017-05-08T05:52:52.814Z,7.24
2017-05-08T05:55:20.103Z,7.96
2017-05-08T05:57:48.096Z,8.02
2017-05-08T06:00:15.396Z,9.04
2017-05-08T06:02:42.882Z,8.58
2017-05-08T06:05:10.332Z,8.30
2017-05-08T06:07:37.589Z,6.80
2017-05-08T06:10:04.915Z,7.94
2017-05-08T06:12:32.209Z,7.14
2017-05-08T06:14:59.450Z,11.12
2017-05-08T06:17:26.719Z,10.36
2017-05-08T06:19:54.020Z,10.34
2017-05-08T06:22:22.076Z,11.30
2017-05-08T06:24:49.363Z,11.58
2017-05-08T06:27:16.818Z,11.98
2017-05-08T06:29:44.843Z,11.72
2017-05-08T06:32:12.194Z,12.72
2017-05-08T06:34:39.469Z,13.62
2017-05-08T06:37:06.908Z,13.64
2017-05-08T06:39:34.204Z,14.46
2017-05-08T06:42:01.500Z,14.40
2017-05-08T06:44:28.800Z,14.62
2017-05-08T06:46:56.073Z,12.56
2017-05-08T06:49:23.336Z,15.86
2017-05-08T06:51:50.597Z,16.06
2017-05-08T06:54:17.849Z,13.22
2017-05-08T06:56:45.171Z,15.76
2017-05-08T06:59:12.479Z,17.26
2017-05-08T07:01:39.785Z,13.80
2017-05-08T07:04:07.065Z,15.22
2017-05-08T07:06:34.353Z,16.34
2017-05-08T07:09:01.901Z,17.92
2017-05-08T07:11:29.204Z,18.98
2017-05-08T07:13:56.599Z,21.00
2017-05-08T07:16:23.912Z,20.26
2017-05-08T07:18:51.925Z,22.10
2017-05-08T07:21:19.192Z,23.92
2017-05-08T07:23:46.628Z,19.16
2017-05-08T07:26:13.896Z,23.92
2017-05-08T07:28:41.170Z,25.72
2017-05-08T07:31:08.464Z,27.52
2017-05-08T07:33:35.758Z,28.20
2017-05-08T07:36:03.056Z,27.56
2017-05-08T07:38:30.591Z,28.04
2017-05-08T07:40:58.017Z,27.88
2017-05-08T07:43:26.051Z,27.00
2017-05-08T07:45:53.320Z,28.78
2017-05-08T07:48:20.584Z,29.08
2017-05-08T07:50:47.861Z,29.02
2017-05-08T07:53:15.100Z,31.66
2017-05-08T07:55:42.585Z,32.64
2017-05-08T07:58:09.871Z,31.20
2017-05-08T08:00:37.192Z,30.56
2017-05-08T08:03:04.509Z,27.74
2017-05-08T08:05:31.847Z,27.78
2017-05-08T08:07:59.262Z,33.74
2017-05-08T08:10:26.512Z,32.24
2017-05-08T08:12:53.817Z,30.64
2017-05-08T08:15:21.124Z,31.80
2017-05-08T08:17:48.401Z,32.98
2017-05-08T08:20:15.678Z,34.02
2017-05-08T08:22:43.696Z,34.30
2017-05-08T08:25:10.992Z,34.92
2017-05-08T08:27:38.321Z,33.40
2017-05-08T08:30:05.584Z,30.28
2017-05-08T08:32:32.840Z,31.98
2017-05-08T08:35:00.112Z,35.92
2017-05-08T08:37:27.429Z,36.32
2017-05-08T08:39:54.661Z,28.38
2017-05-08T08:42:22.756Z,36.36
2017-05-08T08:44:50.320Z,33.18
2017-05-08T08:47:17.623Z,37.18
2017-05-08T08:49:44.941Z,33.82
2017-05-08T08:52:12.285Z,34.28
2017-05-08T08:54:40.280Z,31.74
2017-05-08T08:57:07.543Z,33.78
2017-05-08T09:02:10.317Z,33.10
2017-05-08T09:04:38.477Z,32.56
2017-05-08T09:07:05.729Z,33.24
2017-05-08T09:09:33.204Z,29.88
2017-05-08T09:12:00.446Z,30.70
2017-05-08T09:14:27.700Z,30.88
2017-05-08T09:16:55.014Z,31.70
2017-05-08T09:19:22.288Z,32.14
2017-05-08T09:21:49.592Z,27.54
2017-05-08T09:24:17.005Z,29.44
2017-05-08T09:26:44.370Z,30.80
2017-05-08T09:35:15.649Z,25.28
2017-05-08T09:37:43.232Z,30.86
2017-05-08T09:56:07.302Z,24.72
2017-05-08T11:39:19.615Z,14.00
2017-05-08T11:43:46.851Z,18.60
2017-05-08T11:46:14.107Z,18.24
2017-05-08T11:48:41.440Z,14.54
2017-05-08T11:51:08.716Z,17.98
2017-05-08T11:53:35.987Z,21.90
2017-05-08T11:56:03.242Z,18.04
2017-05-08T12:00:04.249Z,18.74
2017-05-08T12:02:32.336Z,17.66
2017-05-08T12:05:00.226Z,20.32
2017-05-08T12:07:27.547Z,22.90
2017-05-08T12:09:55.642Z,21.18
2017-05-08T12:12:23.056Z,17.14
2017-05-08T12:14:50.372Z,25.88
2017-05-08T12:17:17.582Z,17.92
2017-05-08T12:19:45.508Z,28.84
2017-05-08T12:22:12.790Z,23.08
2017-05-08T12:24:40.051Z,26.50
2017-05-08T12:27:08.070Z,22.28
2017-05-08T12:29:35.231Z,22.12
2017-05-08T12:32:02.545Z,28.56
2017-05-08T12:34:29.997Z,23.56
2017-05-08T12:36:57.203Z,24.74
2017-05-08T12:39:24.487Z,21.38
2017-05-08T12:41:52.545Z,21.02
2017-05-08T12:44:20.515Z,24.10
2017-05-08T12:46:48.479Z,20.52
2017-05-08T12:49:16.587Z,18.48
2017-05-08T12:51:44.000Z,25.22
2017-05-08T12:54:11.271Z,18.00
2017-05-08T12:56:39.312Z,15.58
2017-05-08T12:59:06.857Z,18.72
2017-05-08T13:01:34.187Z,14.20
2017-05-08T13:04:01.377Z,16.62
2017-05-08T13:06:31.084Z,23.36
2017-05-08T13:08:58.437Z,21.90
2017-05-08T13:11:25.806Z,21.50
2017-05-08T13:13:53.809Z,22.26
2017-05-08T13:16:21.035Z,19.96
2017-05-08T13:18:48.993Z,23.10
2017-05-08T13:21:16.351Z,18.26
2017-05-08T13:23:44.440Z,24.24
2017-05-08T13:26:11.714Z,23.78
2017-05-08T13:28:38.948Z,22.44
2017-05-08T13:31:06.215Z,23.60
2017-05-08T13:33:33.445Z,26.40
2017-05-08T13:36:00.645Z,20.84
2017-05-08T13:38:28.012Z,28.36
2017-05-08T13:40:56.062Z,25.24
2017-05-08T13:43:23.246Z,26.60
2017-05-08T13:45:50.510Z,27.64
2017-05-08T13:48:18.474Z,28.10
2017-05-08T13:50:46.416Z,27.44
2017-05-08T13:53:13.561Z,30.12
2017-05-08T13:55:40.767Z,33.02
2017-05-08T13:58:08.022Z,33.40
2017-05-08T14:00:35.187Z,26.30
2017-05-08T14:03:02.609Z,30.00
2017-05-08T14:05:30.496Z,34.76
2017-05-08T14:07:57.664Z,32.58
2017-05-08T14:10:25.045Z,37.16
2017-05-08T14:12:52.250Z,33.82
2017-05-08T14:15:19.508Z,36.50
2017-05-08T14:17:46.823Z,35.98
2017-05-08T14:20:14.877Z,36.36
2017-05-08T14:22:42.075Z,30.28
2017-05-08T14:25:09.378Z,32.70
2017-05-08T14:27:36.560Z,36.50
2017-05-08T14:30:03.769Z,35.08
2017-05-08T14:32:31.412Z,36.78
2017-05-08T14:34:58.572Z,37.22
2017-05-08T14:37:25.751Z,25.74
2017-05-08T14:39:52.977Z,34.22
2017-05-08T14:42:20.629Z,33.68
2017-05-08T14:44:47.901Z,32.24
2017-05-08T14:47:15.140Z,33.46
2017-05-08T14:49:42.353Z,29.26
2017-05-08T14:52:09.551Z,29.16
2017-05-08T14:54:36.780Z,25.22
2017-05-08T14:57:04.011Z,34.30
2017-05-08T14:59:31.253Z,31.30
2017-05-08T15:01:58.440Z,24.84
2017-05-08T15:04:25.652Z,28.40
2017-05-08T15:06:52.825Z,29.10
2017-05-08T15:09:20.165Z,27.94
2017-05-08T15:11:47.372Z,28.48
2017-05-08T15:14:15.316Z,25.88
2017-05-08T15:16:42.578Z,25.70
2017-05-08T15:19:09.787Z,26.72
2017-05-08T15:21:37.040Z,25.18
2017-05-08T15:24:04.440Z,17.74
2017-05-08T15:26:31.772Z,25.56
2017-05-08T15:28:59.105Z,25.70
2017-05-08T15:31:26.325Z,23.46
2017-05-08T15:33:53.507Z,22.94
2017-05-08T15:36:20.887Z,26.30
2017-05-08T15:38:52.072Z,23.78
2017-05-08T15:41:19.326Z,23.84
2017-05-08T15:43:47.416Z,24.92
2017-05-08T15:46:15.469Z,25.38
2017-05-08T15:48:43.713Z,25.16
2017-05-08T15:51:11.052Z,23.32
2017-05-08T15:53:38.245Z,26.12
2017-05-08T15:56:06.277Z,25.34
2017-05-08T15:58:33.474Z,23.82
2017-05-08T16:01:01.408Z,21.60
2017-05-08T16:03:28.650Z,21.06
2017-05-08T16:05:55.916Z,21.30
2017-05-08T16:08:23.233Z,19.76
2017-05-08T16:10:50.501Z,18.90
2017-05-08T16:13:18.324Z,21.90
2017-05-08T16:15:46.339Z,23.38
2017-05-08T16:18:13.616Z,23.76
2017-05-08T16:20:40.896Z,19.96
2017-05-08T16:23:08.145Z,23.04
2017-05-08T16:25:36.116Z,24.16
2017-05-08T16:28:04.265Z,22.30
2017-05-08T16:30:31.560Z,23.14
2017-05-08T16:32:59.053Z,23.56
2017-05-08T16:35:26.285Z,23.18
2017-05-08T16:37:53.487Z,22.72
2017-05-08T16:40:21.515Z,22.78
2017-05-08T16:42:48.771Z,21.58
2017-05-08T16:45:16.127Z,21.42
2017-05-08T16:47:43.308Z,24.58
2017-05-08T16:50:10.585Z,22.40
2017-05-08T16:52:37.796Z,22.28
2017-05-08T16:55:05.005Z,22.74
2017-05-08T16:57:32.422Z,23.74
2017-05-08T17:00:00.429Z,24.14
2017-05-08T17:02:27.749Z,22.02
2017-05-08T17:04:55.905Z,23.44
2017-05-08T17:07:23.106Z,20.94
2017-05-08T17:09:50.322Z,16.46
2017-05-08T17:12:18.257Z,22.06
2017-05-08T17:14:46.381Z,23.12
2017-05-08T17:17:13.620Z,21.88
2017-05-08T17:19:41.635Z,22.12
2017-05-08T17:22:09.075Z,20.86
2017-05-08T17:24:36.242Z,22.38
2017-05-08T17:27:03.483Z,21.88
2017-05-08T17:29:30.797Z,21.08
2017-05-08T17:31:59.040Z,17.78
2017-05-08T17:34:26.523Z,22.54
2017-05-08T17:36:54.496Z,21.70
2017-05-08T17:39:21.880Z,20.08
2017-05-08T17:41:49.097Z,21.56
2017-05-08T17:44:17.125Z,22.94
2017-05-08T17:46:44.426Z,20.20
2017-05-08T17:49:11.673Z,24.26
2017-05-08T17:51:39.740Z,22.32
2017-05-08T17:54:07.798Z,20.74
2017-05-08T17:56:35.223Z,22.04
2017-05-08T17:59:02.565Z,21.54
2017-05-08T18:01:30.313Z,22.64
2017-05-08T18:03:57.616Z,22.06
2017-05-08T18:06:24.894Z,22.44
2017-05-08T18:08:52.851Z,23.52
2017-05-08T18:11:20.784Z,22.38
2017-05-08T18:13:47.986Z,22.42
2017-05-08T18:16:15.265Z,20.90
2017-05-08T18:18:42.496Z,23.82
2017-05-08T18:21:09.712Z,22.82
2017-05-08T18:23:36.984Z,18.96
2017-05-08T18:26:05.000Z,22.26
2017-05-08T18:28:32.286Z,19.72
2017-05-08T18:30:59.498Z,22.02
2017-05-08T18:33:26.995Z,23.90
2017-05-08T18:35:54.237Z,21.38
2017-05-08T18:38:21.425Z,22.60
2017-05-08T18:40:48.676Z,27.52
2017-05-08T18:43:16.527Z,25.58
2017-05-08T18:45:44.582Z,26.28
2017-05-08T18:48:11.938Z,25.70
2017-05-08T18:50:39.184Z,23.90
2017-05-08T18:53:06.441Z,25.88
2017-05-08T18:55:34.506Z,23.96
2017-05-08T18:58:01.711Z,22.00
2017-05-08T19:00:28.884Z,24.60
2017-05-08T19:02:56.193Z,23.72
2017-05-08T19:05:23.407Z,22.48
2017-05-08T19:07:50.789Z,23.78
2017-05-08T19:10:18.153Z,23.14
2017-05-08T19:12:45.584Z,22.50
2017-05-08T19:15:13.570Z,20.50
2017-05-08T19:17:41.112Z,21.64
2017-05-08T19:20:09.109Z,21.28
2017-05-08T19:22:36.393Z,21.90
2017-05-08T19:25:03.607Z,17.86
2017-05-08T19:27:31.524Z,20.26
2017-05-08T19:29:58.938Z,20.44
2017-05-08T19:32:26.195Z,25.02
2017-05-08T19:34:53.482Z,19.42
2017-05-08T19:37:20.957Z,22.68
2017-05-08T19:39:48.146Z,20.42
2017-05-08T19:42:15.358Z,18.46
2017-05-08T19:44:42.631Z,20.06
2017-05-08T19:47:09.828Z,18.62
2017-05-08T19:49:37.126Z,18.40
2017-05-08T19:52:05.099Z,19.90
2017-05-08T19:54:33.037Z,16.88
2017-05-08T19:57:00.248Z,17.00
2017-05-08T19:59:27.485Z,16.74
2017-05-08T20:01:54.732Z,17.32
2017-05-08T20:04:22.004Z,16.40
2017-05-08T20:06:49.336Z,18.24
2017-05-08T20:09:17.568Z,17.72
2017-05-08T20:11:44.835Z,16.38
2017-05-08T20:14:12.819Z,14.84
2017-05-08T20:16:40.821Z,18.90
2017-05-08T20:19:08.089Z,18.92
2017-05-08T20:21:35.313Z,16.62
2017-05-08T20:24:02.618Z,19.86
2017-05-08T20:26:30.501Z,16.06
2017-05-08T20:28:59.147Z,18.46
2017-05-08T20:31:26.561Z,19.38
2017-05-08T20:33:53.823Z,17.48
2017-05-08T20:36:21.182Z,19.02
2017-05-08T20:38:48.429Z,20.68
2017-05-08T20:41:15.794Z,19.40
2017-05-08T20:43:43.173Z,19.66
2017-05-08T20:46:10.430Z,20.08
2017-05-08T20:48:37.709Z,20.16
2017-05-08T20:51:05.202Z,20.58
2017-05-08T20:53:32.429Z,18.92
2017-05-08T20:55:59.755Z,18.22
2017-05-08T20:58:27.107Z,18.50
2017-05-08T21:00:54.506Z,19.42
2017-05-08T21:03:22.152Z,16.98
2017-05-08T21:05:49.502Z,18.06
2017-05-08T21:08:17.488Z,20.74
2017-05-08T21:10:44.813Z,18.76
2017-05-08T21:13:13.088Z,19.22
2017-05-08T21:15:41.205Z,24.52
2017-05-08T21:18:08.601Z,24.46
2017-05-08T21:20:36.604Z,21.58
2017-05-08T21:23:04.518Z,21.98
2017-05-08T21:25:31.741Z,22.30
2017-05-08T21:27:59.125Z,24.02
2017-05-08T21:30:26.644Z,23.40
2017-05-08T21:32:53.914Z,21.92
2017-05-08T21:35:21.104Z,20.38
2017-05-08T21:37:48.446Z,18.18
2017-05-08T21:40:15.821Z,20.20
2017-05-08T21:42:43.820Z,16.84
2017-05-08T21:45:11.031Z,21.40
2017-05-08T21:47:38.845Z,16.60
2017-05-08T21:50:06.149Z,20.06
2017-05-08T21:52:34.174Z,17.14
2017-05-08T21:55:01.474Z,18.18
2017-05-08T21:57:28.697Z,15.74
2017-05-08T21:59:55.856Z,15.34
2017-05-08T22:02:23.207Z,17.76
2017-05-08T22:04:50.584Z,19.16
2017-05-08T22:07:17.976Z,19.46
2017-05-08T22:09:45.134Z,19.50
2017-05-08T22:12:12.715Z,18.88
2017-05-08T22:14:40.140Z,18.54
2017-05-08T22:17:07.433Z,18.82
2017-05-08T22:19:34.713Z,16.68
2017-05-08T22:22:02.812Z,16.74
2017-05-08T22:24:30.128Z,18.28
2017-05-08T22:26:58.085Z,17.92
2017-05-08T22:29:25.362Z,17.18
2017-05-08T22:31:53.337Z,18.78
2017-05-08T22:34:21.299Z,14.70
2017-05-08T22:36:49.232Z,18.32
2017-05-08T22:39:16.572Z,15.00
2017-05-08T22:41:43.876Z,18.16
2017-05-08T22:44:12.715Z,18.90
2017-05-08T22:46:39.911Z,18.00
2017-05-08T22:49:08.005Z,19.06
2017-05-08T22:51:35.157Z,18.76
2017-05-08T22:54:02.586Z,18.38
2017-05-08T22:56:30.800Z,18.86
2017-05-08T22:58:57.966Z,19.42
2017-05-08T23:01:25.135Z,19.02
2017-05-08T23:03:52.534Z,17.40
2017-05-08T23:06:19.776Z,18.90
2017-05-08T23:08:47.859Z,15.48
2017-05-08T23:11:15.098Z,17.68
2017-05-08T23:13:42.300Z,20.08
2017-05-08T23:16:09.467Z,20.26
2017-05-08T23:18:36.844Z,17.68
2017-05-08T23:21:04.011Z,19.44
2017-05-08T23:23:31.266Z,19.72
2017-05-08T23:25:58.477Z,21.66
2017-05-08T23:28:26.524Z,18.97
2017-05-08T23:30:53.817Z,20.76
2017-05-08T23:33:21.111Z,21.77
2017-05-08T23:35:48.341Z,20.50
2017-05-08T23:38:15.654Z,20.32
2017-05-08T23:40:43.744Z,22.40
2017-05-08T23:43:11.008Z,20.68
2017-05-08T23:45:38.296Z,16.88
2017-05-08T23:48:05.516Z,21.80
2017-05-08T23:50:32.932Z,20.08
2017-05-08T23:53:00.098Z,13.92
2017-05-08T23:55:28.093Z,22.58
2017-05-08T23:57:55.303Z,22.48
